Airway Heights, Washington
Current Conditions -  °F | °C
As of 1:53 PM on Wednesday 22 Oct 2014 (Local Time) from KGEG Reporting Station
Light Rain Light Rain  
Wind Chill: 60°   Ceiling: 4700
Heat Index: 60°   Visibility: 10mi
Dew Point: 40°   Wind: 15mph
Humidity: 47%   Direction: 170°S
Pressure: 29.85"   Gusts: 24mph
Location:  47.64°N, 117.59°W
Report Text: KGEG 222053Z 17013G21KT 10SM -RA OVC047 16/04 A2985 RMK AO2 SLP107 P0000 60000 T01560044 58019
Loading
Personal Weather Stations






























Interactive Weather Map
Tropical Storm Tracking
New forecast layout! Learn more

10-Day Weather Forecast

Advertisements
Track Severe Weather on mobile